Time;durP1;ratioP1;P1;durP2;ratioP2;P2;SDS_P1;SDS_P2;PMS_P1;PMS_P2;Temp;Humidity;BMP_temperature;BMP_pressure;BME280_temperature;BME280_humidity;BME280_pressure;Samples;Min_cycle;Max_cycle;Signal;HPM_P1;HPM_P2
2023/03/21 00:00:35;;;;;;;2.87;1.50;;;8.10;99.90;;;;;;5070884;28;20423;-65
2023/03/21 00:03:00;;;;;;;3.17;1.60;;;8.10;99.90;;;;;;5070076;28;20234;-65
2023/03/21 00:05:26;;;;;;;2.53;1.43;;;8.10;99.90;;;;;;5070577;28;20193;-65
2023/03/21 00:07:52;;;;;;;2.80;1.30;;;8.10;99.90;;;;;;5070785;28;20256;-66
2023/03/21 00:10:18;;;;;;;3.33;1.23;;;8.00;99.90;;;;;;5070734;28;20251;-65
2023/03/21 00:12:43;;;;;;;4.40;1.67;;;8.10;99.90;;;;;;5069580;28;20568;-65
2023/03/21 00:15:11;;;;;;;4.23;1.63;;;8.10;99.90;;;;;;5070693;28;20191;-65
2023/03/21 00:17:38;;;;;;;4.63;1.90;;;8.20;99.90;;;;;;5070540;28;20562;-65
2023/03/21 00:20:05;;;;;;;2.33;1.57;;;8.10;99.90;;;;;;5070635;28;20502;-65
2023/03/21 00:22:34;;;;;;;6.17;1.20;;;8.10;99.90;;;;;;5069778;28;20724;-66
2023/03/21 00:25:00;;;;;;;2.17;1.03;;;8.10;99.90;;;;;;5070284;28;20419;-65
2023/03/21 00:27:26;;;;;;;3.10;1.70;;;8.10;99.90;;;;;;5069888;28;20787;-65
2023/03/21 00:29:52;;;;;;;3.07;1.60;;;8.00;99.90;;;;;;5070158;28;20476;-65
2023/03/21 00:32:20;;;;;;;4.70;2.33;;;8.00;99.90;;;;;;5069867;28;20583;-65
2023/03/21 00:34:45;;;;;;;4.90;2.20;;;8.10;99.90;;;;;;5070647;28;20427;-65
2023/03/21 00:37:15;;;;;;;3.10;1.83;;;8.10;99.90;;;;;;5070411;28;20415;-65
2023/03/21 00:39:42;;;;;;;3.30;1.70;;;8.00;99.90;;;;;;5070547;28;20259;-65
2023/03/21 00:42:08;;;;;;;3.70;2.07;;;8.00;99.90;;;;;;5071722;28;20423;-65
2023/03/21 00:44:35;;;;;;;4.03;1.47;;;8.00;99.90;;;;;;5074071;28;20418;-65
2023/03/21 00:47:05;;;;;;;4.83;1.70;;;8.00;99.90;;;;;;5074396;28;20822;-66
2023/03/21 00:49:32;;;;;;;3.00;1.83;;;7.90;99.90;;;;;;5074597;28;20453;-66
2023/03/21 00:52:02;;;;;;;2.97;1.80;;;8.00;99.90;;;;;;5074152;28;20415;-66
2023/03/21 00:54:27;;;;;;;2.87;1.40;;;8.00;99.90;;;;;;5074301;28;20502;-66
2023/03/21 00:56:53;;;;;;;2.33;1.10;;;8.00;99.90;;;;;;5074184;28;20510;-66
2023/03/21 00:59:19;;;;;;;2.87;1.53;;;8.00;99.90;;;;;;5073883;28;20212;-65
2023/03/21 01:01:45;;;;;;;3.83;2.10;;;7.90;99.90;;;;;;5073585;28;20371;-66
2023/03/21 01:04:13;;;;;;;4.87;1.90;;;7.90;99.90;;;;;;5073906;28;20235;-65
2023/03/21 01:06:40;;;;;;;3.67;1.73;;;7.90;99.90;;;;;;5073737;28;20458;-65
2023/03/21 01:09:14;;;;;;;2.80;1.07;;;8.00;99.90;;;;;;5073431;28;20427;-66
2023/03/21 01:11:41;;;;;;;5.97;1.37;;;8.00;99.90;;;;;;5073029;28;20411;-66
2023/03/21 01:14:07;;;;;;;2.93;1.60;;;8.00;99.90;;;;;;5072753;28;20415;-66
2023/03/21 01:16:32;;;;;;;4.30;2.17;;;8.00;99.90;;;;;;5073666;28;20433;-66
2023/03/21 01:18:58;;;;;;;4.20;1.57;;;8.00;99.90;;;;;;5073646;28;20418;-66
2023/03/21 01:21:24;;;;;;;3.07;1.50;;;8.00;99.90;;;;;;5073489;28;20235;-66
2023/03/21 01:23:50;;;;;;;3.50;1.53;;;8.00;99.90;;;;;;5073117;28;20238;-65
2023/03/21 01:26:16;;;;;;;3.00;1.47;;;8.00;99.90;;;;;;5072961;28;20891;-66
2023/03/21 01:28:43;;;;;;;6.13;1.67;;;8.00;99.90;;;;;;5071627;28;20431;-65
2023/03/21 01:31:11;;;;;;;2.67;1.40;;;8.10;99.90;;;;;;5073458;28;20445;-65
2023/03/21 01:33:37;;;;;;;6.07;1.83;;;8.00;99.90;;;;;;5072791;28;20450;-66
2023/03/21 01:36:03;;;;;;;5.30;2.00;;;8.00;99.90;;;;;;5073575;28;21005;-65
2023/03/21 01:38:29;;;;;;;3.57;1.60;;;8.00;99.90;;;;;;5073092;28;20185;-66
2023/03/21 01:40:54;;;;;;;2.33;1.10;;;8.00;99.90;;;;;;5073334;28;20431;-66
2023/03/21 01:43:24;;;;;;;3.10;1.43;;;8.00;99.90;;;;;;5072417;28;20185;-66
2023/03/21 01:46:08;;;;;;;2.53;1.93;;;8.00;99.90;;;;;;5073448;28;20288;-66
2023/03/21 01:48:38;;;;;;;2.67;1.60;;;8.00;99.90;;;;;;5073110;28;20716;-66
2023/03/21 01:51:04;;;;;;;2.50;1.37;;;8.00;99.90;;;;;;5073083;28;20415;-66
2023/03/21 01:53:34;;;;;;;3.30;1.57;;;8.00;99.90;;;;;;5072088;28;20429;-66
2023/03/21 01:56:05;;;;;;;3.90;1.67;;;8.00;99.90;;;;;;5072743;28;20418;-66
2023/03/21 01:58:32;;;;;;;2.60;1.50;;;7.90;99.90;;;;;;5072260;28;20464;-66
2023/03/21 02:00:59;;;;;;;3.63;1.40;;;8.00;99.90;;;;;;5072424;28;20427;-65
2023/03/21 02:03:28;;;;;;;3.83;2.07;;;7.90;99.90;;;;;;5072182;28;20958;-66
2023/03/21 02:06:01;;;;;;;3.53;1.63;;;7.90;99.90;;;;;;5072842;28;20476;-65
2023/03/21 02:08:31;;;;;;;2.60;1.50;;;7.90;99.90;;;;;;5072382;28;20472;-65
2023/03/21 02:10:57;;;;;;;11.50;2.33;;;7.80;99.90;;;;;;5072359;28;20416;-66
2023/03/21 02:13:24;;;;;;;4.10;1.60;;;7.80;99.90;;;;;;5071692;28;20423;-65
2023/03/21 02:16:00;;;;;;;2.90;1.57;;;7.80;99.90;;;;;;5072756;28;20992;-65
2023/03/21 02:18:55;;;;;;;2.90;1.33;;;7.80;99.90;;;;;;5072550;28;20502;-65
2023/03/21 02:21:55;;;;;;;3.03;1.47;;;7.90;99.90;;;;;;5060983;28;20427;-66
2023/03/21 02:24:58;;;;;;;3.13;1.40;;;7.80;99.90;;;;;;5060715;28;20423;-66
2023/03/21 02:27:26;;;;;;;3.43;1.70;;;7.80;99.90;;;;;;5059082;28;20467;-65
2023/03/21 02:30:00;;;;;;;3.00;1.47;;;7.80;99.90;;;;;;5072426;28;20471;-66
2023/03/21 02:32:45;;;;;;;2.33;1.37;;;7.80;99.90;;;;;;5072164;28;20450;-65
2023/03/21 02:35:20;;;;;;;4.70;1.73;;;7.80;99.90;;;;;;5072270;28;21107;-65
2023/03/21 02:37:57;;;;;;;3.70;1.80;;;7.80;99.90;;;;;;5072329;28;20406;-66
2023/03/21 02:40:31;;;;;;;4.80;2.37;;;7.90;99.90;;;;;;5072499;28;20403;-65
2023/03/21 02:43:10;;;;;;;4.00;1.70;;;7.90;99.90;;;;;;5070879;28;20465;-66
2023/03/21 02:45:51;;;;;;;3.03;1.63;;;7.80;99.90;;;;;;5072093;28;20411;-66
2023/03/21 02:48:28;;;;;;;4.07;2.20;;;7.80;99.90;;;;;;5071901;28;20506;-64
2023/03/21 02:50:57;;;;;;;3.23;1.70;;;7.80;99.90;;;;;;5072129;28;20419;-64
2023/03/21 02:53:27;;;;;;;5.53;1.60;;;7.80;99.90;;;;;;5071245;28;20412;-65
2023/03/21 02:55:54;;;;;;;2.93;1.80;;;7.80;99.90;;;;;;5071901;28;20916;-64
2023/03/21 02:58:23;;;;;;;2.97;1.77;;;7.80;99.90;;;;;;5071026;28;20427;-64
2023/03/21 03:00:49;;;;;;;6.50;2.03;;;7.80;99.90;;;;;;5071821;28;20481;-64
2023/03/21 03:03:15;;;;;;;2.13;1.47;;;7.80;99.90;;;;;;5071256;28;20943;-64
2023/03/21 03:05:47;;;;;;;2.87;1.37;;;7.70;99.90;;;;;;5070914;28;20424;-64
2023/03/21 03:08:59;;;;;;;3.70;1.60;;;7.70;99.90;;;;;;5071504;28;20411;-64
2023/03/21 03:11:28;;;;;;;4.30;1.70;;;7.70;99.90;;;;;;5061178;28;20914;-64
2023/03/21 03:14:28;;;;;;;4.23;1.60;;;7.80;99.90;;;;;;5070779;28;20507;-64
2023/03/21 03:17:08;;;;;;;2.90;1.73;;;7.70;99.90;;;;;;5071525;28;20415;-64
2023/03/21 03:19:43;;;;;;;1.77;1.23;;;7.70;99.90;;;;;;5071579;28;20414;-64
2023/03/21 03:22:35;;;;;;;3.30;1.97;;;7.60;99.90;;;;;;5071040;28;20415;-65
2023/03/21 03:25:10;;;;;;;2.70;1.33;;;7.60;99.90;;;;;;5071548;28;20422;-64
2023/03/21 03:27:41;;;;;;;5.50;2.37;;;7.60;99.90;;;;;;5070391;28;20504;-64
2023/03/21 03:30:09;;;;;;;5.10;1.67;;;7.60;99.90;;;;;;5071383;28;20419;-64
2023/03/21 03:32:52;;;;;;;4.13;1.70;;;7.60;99.90;;;;;;5070748;28;20423;-64
2023/03/21 03:35:21;;;;;;;3.37;1.90;;;7.50;99.90;;;;;;5071077;28;20419;-64
2023/03/21 03:37:52;;;;;;;6.73;1.73;;;7.50;99.90;;;;;;5070779;28;20420;-64
2023/03/21 03:40:35;;;;;;;3.77;2.13;;;7.50;99.90;;;;;;5071083;28;20510;-64
2023/03/21 03:43:06;;;;;;;3.47;1.40;;;7.50;99.90;;;;;;5069947;28;20419;-64
2023/03/21 03:45:35;;;;;;;2.83;1.30;;;7.40;99.90;;;;;;5071240;28;20826;-64
2023/03/21 03:48:50;;;;;;;3.17;1.53;;;7.40;99.90;;;;;;5070865;28;20423;-64
2023/03/21 03:51:22;;;;;;;5.63;2.60;;;7.40;99.90;;;;;;5068692;28;20510;-64
2023/03/21 03:54:09;;;;;;;5.83;1.53;;;7.40;99.90;;;;;;5064857;28;20865;-64
2023/03/21 03:56:35;;;;;;;4.37;2.10;;;7.30;99.90;;;;;;5070318;28;20418;-64
2023/03/21 03:59:03;;;;;;;3.53;1.63;;;7.30;99.90;;;;;;5070281;28;20427;-64
2023/03/21 04:01:29;;;;;;;3.30;1.93;;;7.30;99.90;;;;;;5070516;28;20442;-64
2023/03/21 04:03:54;;;;;;;9.20;1.53;;;7.30;99.90;;;;;;5070824;28;20423;-64
2023/03/21 04:06:21;;;;;;;2.80;1.63;;;7.10;99.90;;;;;;5070711;28;20209;-64
2023/03/21 04:08:47;;;;;;;3.40;1.83;;;7.10;99.90;;;;;;5070487;28;20218;-64
2023/03/21 04:11:15;;;;;;;4.07;1.60;;;7.10;99.90;;;;;;5070454;28;20422;-66
2023/03/21 04:13:41;;;;;;;5.20;2.20;;;7.10;99.90;;;;;;5069515;28;20423;-67
2023/03/21 04:16:07;;;;;;;6.30;2.40;;;7.00;99.90;;;;;;5069760;28;20426;-67
2023/03/21 04:18:33;;;;;;;7.30;1.63;;;6.90;99.90;;;;;;5070701;28;20181;-67
2023/03/21 04:20:59;;;;;;;4.33;1.70;;;6.90;99.90;;;;;;5070658;28;20415;-66
2023/03/21 04:23:25;;;;;;;3.40;2.10;;;6.80;99.90;;;;;;5070081;28;20209;-67
2023/03/21 04:25:51;;;;;;;3.77;2.27;;;6.80;99.90;;;;;;5070236;28;20859;-64
2023/03/21 04:28:16;;;;;;;4.87;2.40;;;6.70;99.90;;;;;;5069658;28;20455;-64
2023/03/21 04:30:42;;;;;;;5.63;2.30;;;6.70;99.90;;;;;;5070148;28;20212;-64
2023/03/21 04:33:07;;;;;;;2.90;1.43;;;6.60;99.90;;;;;;5070089;28;20189;-64
2023/03/21 04:35:35;;;;;;;4.57;2.23;;;6.60;99.90;;;;;;5070710;28;20177;-64
2023/03/21 04:38:01;;;;;;;5.97;2.40;;;6.50;99.90;;;;;;5070290;28;20222;-64
2023/03/21 04:40:26;;;;;;;2.90;1.70;;;6.50;99.90;;;;;;5070523;28;20419;-64
2023/03/21 04:42:52;;;;;;;4.40;1.57;;;6.40;99.90;;;;;;5069414;28;20630;-64
2023/03/21 04:45:17;;;;;;;2.87;1.90;;;6.30;99.90;;;;;;5070746;28;20614;-66
2023/03/21 04:47:43;;;;;;;2.70;1.77;;;6.30;99.90;;;;;;5070520;28;20751;-66
2023/03/21 04:50:10;;;;;;;4.00;1.70;;;6.30;99.90;;;;;;5070729;28;20610;-66
2023/03/21 04:52:35;;;;;;;10.63;1.90;;;6.30;99.90;;;;;;5070256;28;20177;-67
2023/03/21 04:55:01;;;;;;;2.80;1.77;;;6.30;99.90;;;;;;5070294;28;20419;-66
2023/03/21 04:57:27;;;;;;;5.00;2.07;;;6.20;99.90;;;;;;5070232;28;20634;-66
2023/03/21 04:59:52;;;;;;;4.03;1.67;;;6.20;99.90;;;;;;5070091;28;20185;-66
2023/03/21 05:02:18;;;;;;;4.57;1.90;;;6.20;99.90;;;;;;5069730;28;20197;-66
2023/03/21 05:04:44;;;;;;;2.63;1.30;;;6.10;99.90;;;;;;5070241;28;20653;-66
2023/03/21 05:07:10;;;;;;;4.23;1.80;;;6.10;99.90;;;;;;5070077;28;20230;-66
2023/03/21 05:09:35;;;;;;;3.07;1.80;;;6.10;99.90;;;;;;5069709;28;20173;-66
2023/03/21 05:12:01;;;;;;;6.47;2.23;;;6.20;99.90;;;;;;5068841;28;20319;-67
2023/03/21 05:14:27;;;;;;;3.83;1.83;;;6.20;99.90;;;;;;5069456;28;20201;-66
2023/03/21 05:16:56;;;;;;;3.30;2.00;;;6.30;99.90;;;;;;5085771;28;20430;-66
2023/03/21 05:19:45;;;;;;;5.63;2.17;;;6.30;99.90;;;;;;5070281;28;20188;-67
2023/03/21 05:22:13;;;;;;;5.57;2.70;;;6.20;99.90;;;;;;5069630;28;20427;-66
2023/03/21 05:24:40;;;;;;;4.07;2.13;;;6.30;99.90;;;;;;5070188;28;20453;-66
2023/03/21 05:27:06;;;;;;;5.80;2.57;;;6.30;99.90;;;;;;5070096;28;20966;-66
2023/03/21 05:29:32;;;;;;;2.83;1.70;;;6.30;99.90;;;;;;5073581;28;20419;-66
2023/03/21 05:32:01;;;;;;;5.40;2.10;;;6.30;99.90;;;;;;5073337;28;20249;-66
2023/03/21 05:34:27;;;;;;;4.43;2.00;;;6.30;99.90;;;;;;5065907;28;20737;-66
2023/03/21 05:36:53;;;;;;;3.67;2.50;;;6.30;99.90;;;;;;5072399;28;20936;-66
2023/03/21 05:39:19;;;;;;;5.53;2.90;;;6.30;99.90;;;;;;5073632;28;20488;-66
2023/03/21 05:41:45;;;;;;;4.30;2.27;;;6.40;99.90;;;;;;5073187;28;20415;-66
2023/03/21 05:44:11;;;;;;;2.73;1.97;;;6.30;99.90;;;;;;5073021;28;20426;-66
2023/03/21 05:46:37;;;;;;;13.27;4.70;;;6.40;99.90;;;;;;5073411;28;20215;-66
2023/03/21 05:49:02;;;;;;;6.90;3.30;;;6.40;99.90;;;;;;5073489;28;20257;-66
2023/03/21 05:51:28;;;;;;;4.57;2.67;;;6.50;99.90;;;;;;5072871;28;20181;-66
2023/03/21 05:53:53;;;;;;;4.23;2.70;;;6.50;99.90;;;;;;5073338;28;20226;-66
2023/03/21 05:56:19;;;;;;;4.97;2.50;;;6.50;99.90;;;;;;5073437;28;20185;-66
2023/03/21 05:58:45;;;;;;;3.07;1.93;;;6.50;99.90;;;;;;5072766;28;20192;-66
2023/03/21 06:01:11;;;;;;;3.10;2.17;;;6.60;99.90;;;;;;5073138;28;20258;-66
2023/03/21 06:03:36;;;;;;;4.27;2.50;;;6.60;99.90;;;;;;5072936;28;20184;-66
2023/03/21 06:06:02;;;;;;;15.37;3.70;;;6.60;99.90;;;;;;5073023;28;20703;-66
2023/03/21 06:08:29;;;;;;;3.93;2.13;;;6.70;99.90;;;;;;5072196;28;20177;-66
2023/03/21 06:10:54;;;;;;;5.17;2.20;;;6.70;99.90;;;;;;5072963;28;20195;-66
2023/03/21 06:13:20;;;;;;;2.80;1.60;;;6.80;99.90;;;;;;5071674;28;20423;-66
2023/03/21 06:15:46;;;;;;;4.40;2.53;;;6.80;99.90;;;;;;5072967;28;20173;-66
2023/03/21 06:18:12;;;;;;;4.70;2.50;;;6.90;99.90;;;;;;5072713;28;20434;-66
2023/03/21 06:20:38;;;;;;;4.27;1.87;;;6.90;99.90;;;;;;5072496;28;20208;-66
2023/03/21 06:23:04;;;;;;;3.80;2.13;;;7.00;99.90;;;;;;5072301;28;20220;-66
2023/03/21 06:25:29;;;;;;;3.57;1.60;;;7.00;99.90;;;;;;5072811;28;20717;-66
2023/03/21 06:27:55;;;;;;;5.07;1.93;;;7.00;99.90;;;;;;5071814;28;20233;-66
2023/03/21 06:30:20;;;;;;;10.67;5.50;;;7.00;99.90;;;;;;5071986;28;20181;-66
2023/03/21 06:32:46;;;;;;;3.90;2.30;;;7.00;99.90;;;;;;5071230;28;20192;-66
2023/03/21 06:35:11;;;;;;;6.80;3.00;;;7.10;99.90;;;;;;5071095;28;20181;-66
2023/03/21 06:37:37;;;;;;;3.37;1.60;;;7.10;99.90;;;;;;5071676;28;20185;-65
2023/03/21 06:40:04;;;;;;;5.63;2.23;;;7.10;99.90;;;;;;5070575;28;20184;-66
2023/03/21 06:42:31;;;;;;;4.30;1.93;;;7.20;99.90;;;;;;5070508;28;20177;-66
2023/03/21 06:44:57;;;;;;;1.67;1.00;;;7.30;99.90;;;;;;5071415;28;20450;-66
2023/03/21 06:47:23;;;;;;;2.70;1.43;;;7.30;99.90;;;;;;5060940;28;20955;-66
2023/03/21 06:49:49;;;;;;;5.20;2.00;;;7.40;99.90;;;;;;5068187;28;20447;-66
2023/03/21 06:52:14;;;;;;;4.10;1.87;;;7.50;99.90;;;;;;5069835;28;20652;-65
2023/03/21 06:54:40;;;;;;;3.57;1.93;;;7.60;99.90;;;;;;5071160;28;20546;-66
2023/03/21 06:57:06;;;;;;;4.77;2.13;;;7.70;99.90;;;;;;5071584;28;20913;-65
2023/03/21 06:59:31;;;;;;;3.80;1.90;;;7.80;99.90;;;;;;5071146;28;20207;-66
2023/03/21 07:01:57;;;;;;;4.00;2.17;;;7.90;99.90;;;;;;5066371;28;20230;-65
2023/03/21 07:04:23;;;;;;;4.33;2.47;;;8.00;99.90;;;;;;5063381;28;20645;-66
2023/03/21 07:06:49;;;;;;;4.17;1.73;;;8.20;99.90;;;;;;5071071;28;20458;-66
2023/03/21 07:09:16;;;;;;;2.77;1.67;;;8.40;99.90;;;;;;5068189;28;20180;-66
2023/03/21 07:11:42;;;;;;;7.13;1.77;;;8.50;99.90;;;;;;5063397;28;20726;-66
2023/03/21 07:14:07;;;;;;;5.60;1.77;;;8.70;99.90;;;;;;5070037;28;20423;-65
2023/03/21 07:16:33;;;;;;;3.23;1.60;;;8.80;99.90;;;;;;5071266;28;20696;-66
2023/03/21 07:18:59;;;;;;;2.07;1.43;;;9.00;99.90;;;;;;5070631;28;20743;-66
2023/03/21 07:21:24;;;;;;;4.70;1.37;;;9.20;99.90;;;;;;5070905;28;20178;-66
2023/03/21 07:23:50;;;;;;;2.20;1.40;;;9.40;99.90;;;;;;5069627;28;20212;-66
2023/03/21 07:26:17;;;;;;;6.23;1.93;;;9.50;99.90;;;;;;5070750;28;20220;-65
2023/03/21 07:28:43;;;;;;;2.63;1.10;;;9.80;99.90;;;;;;5069195;28;20176;-66
2023/03/21 07:31:13;;;;;;;2.50;1.40;;;10.20;99.90;;;;;;5070706;28;20426;-66
2023/03/21 07:33:39;;;;;;;2.83;1.53;;;10.70;99.90;;;;;;5068406;28;20419;-66
2023/03/21 07:36:11;;;;;;;2.60;1.23;;;11.50;99.90;;;;;;5070513;28;20419;-66
2023/03/21 07:38:37;;;;;;;2.03;1.23;;;12.40;98.50;;;;;;5070749;28;20656;-63
2023/03/21 07:41:02;;;;;;;4.27;1.50;;;12.90;97.00;;;;;;5070790;28;20441;-63
2023/03/21 07:43:28;;;;;;;4.70;1.57;;;13.30;95.80;;;;;;5069107;28;20260;-63
2023/03/21 07:45:57;;;;;;;3.70;1.07;;;14.10;95.10;;;;;;5069793;28;20318;-63
2023/03/21 07:48:23;;;;;;;4.90;1.73;;;14.80;93.60;;;;;;5070087;28;20208;-63
2023/03/21 07:50:49;;;;;;;1.53;0.80;;;15.20;93.10;;;;;;5070275;28;20468;-64
2023/03/21 07:53:15;;;;;;;3.27;1.20;;;16.50;90.80;;;;;;5069102;28;20447;-64
2023/03/21 07:55:41;;;;;;;2.70;1.00;;;17.00;88.90;;;;;;5086361;28;20829;-66
2023/03/21 07:58:06;;;;;;;2.03;1.03;;;17.30;86.90;;;;;;5069547;28;20284;-64
2023/03/21 08:00:32;;;;;;;2.13;1.10;;;17.40;85.10;;;;;;5070566;28;20203;-64
2023/03/21 08:02:58;;;;;;;2.47;1.07;;;17.40;85.10;;;;;;5069055;28;20197;-64
2023/03/21 08:05:26;;;;;;;1.73;0.83;;;18.00;82.20;;;;;;5065080;28;20177;-65
2023/03/21 08:07:52;;;;;;;2.00;1.10;;;17.40;81.80;;;;;;5063695;28;20550;-64
2023/03/21 08:10:18;;;;;;;3.40;1.20;;;16.50;83.30;;;;;;5068701;28;20494;-64
2023/03/21 08:12:44;;;;;;;2.80;1.20;;;16.00;86.20;;;;;;5066757;28;20184;-62
2023/03/21 08:15:11;;;;;;;2.43;1.10;;;15.50;84.80;;;;;;5068181;28;20416;-62
2023/03/21 08:17:38;;;;;;;3.17;1.23;;;15.00;87.90;;;;;;5068603;28;20424;-63
2023/03/21 08:20:10;;;;;;;3.33;1.17;;;14.90;87.60;;;;;;5068632;28;20787;-63
2023/03/21 08:22:36;;;;;;;6.40;1.37;;;14.80;87.60;;;;;;5067710;28;20808;-63
2023/03/21 08:25:04;;;;;;;2.37;1.23;;;15.00;88.40;;;;;;5067362;28;20489;-63
2023/03/21 08:27:31;;;;;;;2.23;1.23;;;15.60;88.10;;;;;;5054048;28;20516;-63
2023/03/21 08:29:57;;;;;;;2.03;0.97;;;16.00;85.10;;;;;;5068647;28;20443;-63
2023/03/21 08:32:28;;;;;;;1.60;0.80;;;16.60;85.00;;;;;;5067436;28;20474;-63
2023/03/21 08:34:54;;;;;;;3.00;1.20;;;16.80;84.50;;;;;;5067612;28;20411;-63
2023/03/21 08:37:20;;;;;;;2.20;1.17;;;16.90;82.30;;;;;;5083504;28;20462;-63
2023/03/21 08:39:46;;;;;;;2.60;1.07;;;17.10;81.00;;;;;;5067645;28;20442;-63
2023/03/21 08:42:11;;;;;;;4.30;1.60;;;17.50;79.70;;;;;;5067952;28;20231;-63
2023/03/21 08:44:38;;;;;;;4.00;1.53;;;17.60;77.70;;;;;;5067557;28;20180;-63
2023/03/21 08:47:05;;;;;;;2.57;1.20;;;17.00;79.70;;;;;;5068314;28;20911;-63
2023/03/21 08:49:30;;;;;;;3.70;1.50;;;16.90;77.90;;;;;;5068340;28;20419;-63
2023/03/21 08:51:56;;;;;;;4.10;1.20;;;16.50;80.80;;;;;;5068130;28;20751;-66
2023/03/21 08:54:23;;;;;;;3.27;1.00;;;16.70;80.50;;;;;;5066507;28;20181;-66
2023/03/21 08:56:49;;;;;;;1.50;0.67;;;16.90;77.50;;;;;;5067761;28;20185;-66
2023/03/21 08:59:14;;;;;;;2.90;1.33;;;17.30;77.10;;;;;;5066486;28;20430;-66
2023/03/21 09:01:40;;;;;;;2.23;1.13;;;17.20;77.90;;;;;;5067779;28;20645;-66
2023/03/21 09:04:09;;;;;;;5.43;1.63;;;17.30;78.20;;;;;;5071586;28;20514;-66
2023/03/21 09:06:36;;;;;;;2.77;1.50;;;17.00;77.50;;;;;;5070849;28;20465;-66
2023/03/21 09:09:04;;;;;;;3.77;1.70;;;17.10;79.20;;;;;;5071284;28;20804;-67
2023/03/21 09:11:30;;;;;;;1.93;1.00;;;17.30;78.70;;;;;;5071399;28;20411;-66
2023/03/21 09:13:55;;;;;;;2.37;1.40;;;16.90;78.30;;;;;;5071097;28;21367;-66
2023/03/21 09:16:21;;;;;;;3.83;1.90;;;17.00;79.40;;;;;;5072120;28;20215;-67
2023/03/21 09:18:49;;;;;;;7.30;1.37;;;16.60;79.10;;;;;;5072127;28;20184;-66
2023/03/21 09:21:17;;;;;;;2.83;1.10;;;16.50;80.10;;;;;;5072110;28;20173;-67
2023/03/21 09:23:43;;;;;;;2.77;1.17;;;16.50;80.00;;;;;;5070895;28;20750;-67
2023/03/21 09:26:10;;;;;;;2.13;0.90;;;16.30;78.80;;;;;;5071955;28;20462;-68
2023/03/21 09:28:39;;;;;;;2.43;1.17;;;16.30;79.00;;;;;;5070698;28;20415;-67
2023/03/21 09:31:07;;;;;;;2.87;0.93;;;15.90;78.90;;;;;;5072293;28;20426;-67
2023/03/21 09:33:34;;;;;;;1.80;0.90;;;16.10;78.70;;;;;;5071335;28;20453;-67
2023/03/21 09:36:00;;;;;;;2.07;0.93;;;16.00;77.90;;;;;;5071717;28;20426;-67
2023/03/21 09:38:36;;;;;;;2.50;0.90;;;15.80;78.60;;;;;;5071171;28;20476;-67
2023/03/21 09:41:19;;;;;;;1.50;0.67;;;15.90;79.40;;;;;;5071840;28;20479;-67
2023/03/21 09:44:02;;;;;;;2.33;0.80;;;15.80;79.20;;;;;;5066994;28;20447;-67
2023/03/21 09:46:38;;;;;;;1.63;1.10;;;15.70;78.10;;;;;;5071605;28;20524;-67
2023/03/21 09:49:17;;;;;;;3.60;1.23;;;15.40;79.20;;;;;;5071622;28;20409;-67
2023/03/21 09:51:46;;;;;;;2.27;1.10;;;15.20;79.70;;;;;;5067490;28;20508;-67
2023/03/21 09:54:26;;;;;;;2.20;0.93;;;15.00;80.10;;;;;;5068162;28;20430;-67
2023/03/21 09:56:55;;;;;;;2.43;0.77;;;15.10;81.40;;;;;;5065244;28;20434;-67
2023/03/21 09:59:28;;;;;;;2.53;1.00;;;15.10;79.20;;;;;;5083069;28;20920;-68
2023/03/21 10:01:54;;;;;;;2.10;0.77;;;15.10;78.90;;;;;;5070553;28;20438;-67
2023/03/21 10:04:21;;;;;;;1.87;0.80;;;15.20;80.30;;;;;;5070331;28;20434;-67
2023/03/21 10:06:58;;;;;;;2.07;1.10;;;15.20;78.60;;;;;;5069935;28;20611;-67
2023/03/21 10:09:27;;;;;;;1.90;1.10;;;15.20;82.50;;;;;;5069962;28;20433;-67
2023/03/21 10:12:00;;;;;;;2.80;1.20;;;15.30;80.10;;;;;;5069632;28;20430;-67
2023/03/21 10:14:32;;;;;;;3.03;1.70;;;15.30;81.50;;;;;;5069039;28;20426;-67
2023/03/21 10:17:03;;;;;;;3.47;1.47;;;15.20;81.70;;;;;;5070713;28;20442;-67
2023/03/21 10:19:29;;;;;;;2.40;1.50;;;15.10;82.10;;;;;;5071274;28;20519;-67
2023/03/21 10:21:55;;;;;;;3.33;1.70;;;15.10;82.10;;;;;;5070603;28;20473;-67
2023/03/21 10:24:24;;;;;;;2.47;1.33;;;15.10;82.10;;;;;;5070585;28;20521;-67
2023/03/21 10:26:52;;;;;;;2.30;1.40;;;15.10;81.80;;;;;;5069912;28;20527;-67
2023/03/21 10:29:22;;;;;;;2.73;1.30;;;15.10;83.10;;;;;;5069567;28;20411;-67
2023/03/21 10:31:50;;;;;;;2.93;1.40;;;15.00;81.70;;;;;;5068485;28;20481;-67
2023/03/21 10:34:35;;;;;;;3.13;1.73;;;15.00;84.70;;;;;;5070339;28;20956;-67
2023/03/21 10:37:03;;;;;;;2.20;1.10;;;15.20;82.60;;;;;;5070329;28;20419;-67
2023/03/21 10:39:37;;;;;;;5.73;1.57;;;15.30;81.90;;;;;;5070316;28;20484;-67
2023/03/21 10:42:02;;;;;;;2.60;1.67;;;15.10;82.80;;;;;;5069579;28;20426;-67
2023/03/21 10:44:30;;;;;;;3.10;1.30;;;15.00;83.20;;;;;;5069135;28;20586;-67
2023/03/21 10:47:08;;;;;;;2.73;1.60;;;15.00;84.00;;;;;;5070003;28;20213;-67
2023/03/21 10:49:36;;;;;;;3.20;1.50;;;15.10;84.20;;;;;;5069867;28;20844;-68
2023/03/21 10:52:07;;;;;;;4.43;2.10;;;15.00;84.30;;;;;;5069689;28;20552;-67
2023/03/21 10:54:36;;;;;;;4.03;1.30;;;15.10;84.40;;;;;;5069472;28;20419;-67
2023/03/21 10:57:07;;;;;;;3.50;1.53;;;15.00;84.80;;;;;;5069779;28;20449;-67
2023/03/21 10:59:38;;;;;;;5.47;1.80;;;15.10;85.50;;;;;;5069368;28;20419;-67
2023/03/21 11:02:05;;;;;;;2.93;1.73;;;15.00;82.60;;;;;;5069702;28;20465;-67
2023/03/21 11:04:31;;;;;;;3.20;1.60;;;14.80;82.60;;;;;;5069641;28;20415;-67
2023/03/21 11:07:01;;;;;;;3.93;2.00;;;14.70;84.80;;;;;;5069792;28;20465;-67
2023/03/21 11:09:48;;;;;;;3.00;1.53;;;14.70;84.70;;;;;;5067872;28;20411;-67
2023/03/21 11:12:16;;;;;;;2.63;1.20;;;14.80;84.30;;;;;;5069048;28;20411;-67
2023/03/21 11:14:47;;;;;;;3.23;1.50;;;14.80;83.80;;;;;;5068337;28;20424;-67
2023/03/21 11:17:16;;;;;;;2.00;1.50;;;14.80;84.30;;;;;;5069415;28;20514;-67
2023/03/21 11:19:58;;;;;;;4.00;1.47;;;14.80;84.10;;;;;;5069249;28;20423;-67
2023/03/21 11:22:29;;;;;;;4.70;1.40;;;14.90;83.30;;;;;;5069506;28;20513;-67
2023/03/21 11:25:05;;;;;;;6.13;1.13;;;14.80;83.80;;;;;;5068891;28;20428;-67
2023/03/21 11:27:31;;;;;;;5.30;1.33;;;14.70;85.00;;;;;;5069059;28;20522;-67
2023/03/21 11:30:00;;;;;;;2.97;1.30;;;14.70;84.80;;;;;;5068629;28;20418;-67
2023/03/21 11:32:34;;;;;;;2.00;1.20;;;14.90;83.60;;;;;;5068832;28;20453;-67
2023/03/21 11:35:00;;;;;;;3.67;1.40;;;15.00;84.60;;;;;;5068973;28;20423;-67
2023/03/21 11:37:37;;;;;;;2.30;1.47;;;15.10;84.20;;;;;;5069277;28;20477;-67
2023/03/21 11:40:23;;;;;;;2.93;1.57;;;15.00;83.60;;;;;;5066881;28;20459;-67
2023/03/21 11:43:00;;;;;;;3.60;1.20;;;14.90;83.20;;;;;;5067769;28;20443;-67
2023/03/21 11:45:31;;;;;;;2.57;1.67;;;15.00;82.50;;;;;;5066198;28;20519;-67
2023/03/21 11:47:59;;;;;;;2.70;1.20;;;15.00;81.00;;;;;;5068405;28;20583;-67
2023/03/21 11:50:31;;;;;;;2.30;1.30;;;15.10;81.50;;;;;;5069258;28;20446;-67
2023/03/21 11:53:37;;;;;;;2.10;1.00;;;15.00;82.00;;;;;;5067779;28;20472;-68
2023/03/21 11:56:30;;;;;;;2.10;1.10;;;14.80;81.00;;;;;;5068450;28;20468;-69
2023/03/21 11:59:15;;;;;;;1.60;0.90;;;14.80;83.90;;;;;;5068028;28;20415;-67
2023/03/21 12:01:49;;;;;;;2.77;1.50;;;14.90;83.60;;;;;;5056568;28;21223;-67
2023/03/21 12:04:36;;;;;;;2.80;1.60;;;15.00;82.80;;;;;;5068848;28;20844;-67
2023/03/21 12:07:18;;;;;;;4.10;1.70;;;15.00;83.80;;;;;;5068715;28;21058;-67
2023/03/21 12:09:49;;;;;;;4.47;1.50;;;15.00;84.50;;;;;;5062844;28;20966;-67
2023/03/21 12:12:41;;;;;;;2.70;1.27;;;15.00;78.80;;;;;;5068126;28;20426;-67
2023/03/21 12:15:23;;;;;;;1.90;1.00;;;15.00;76.20;;;;;;5068681;28;20919;-67
2023/03/21 12:17:52;;;;;;;2.07;1.00;;;15.10;79.10;;;;;;5055506;28;20407;-67
2023/03/21 12:20:29;;;;;;;3.30;0.93;;;15.10;79.10;;;;;;5068749;28;20420;-67
2023/03/21 12:23:23;;;;;;;9.30;1.07;;;15.20;75.90;;;;;;5067144;28;20518;-68
2023/03/21 12:26:01;;;;;;;1.50;0.67;;;15.20;75.80;;;;;;5067409;28;20458;-67
2023/03/21 12:28:52;;;;;;;2.27;0.90;;;15.10;66.60;;;;;;5062413;28;21184;-67
2023/03/21 12:31:39;;;;;;;1.70;0.70;;;15.20;69.80;;;;;;5068908;28;20872;-68
2023/03/21 12:34:23;;;;;;;1.97;1.07;;;15.30;68.70;;;;;;5065786;28;20963;-67
2023/03/21 12:36:54;;;;;;;3.00;1.03;;;15.30;69.70;;;;;;5067864;28;20412;-67
2023/03/21 12:39:32;;;;;;;4.70;0.80;;;15.40;69.80;;;;;;5072883;28;20811;-67
2023/03/21 12:42:00;;;;;;;1.73;0.60;;;15.40;69.70;;;;;;5072195;28;20411;-67
2023/03/21 12:44:31;;;;;;;2.40;0.73;;;15.50;71.20;;;;;;5071952;28;20943;-67
2023/03/21 12:47:06;;;;;;;1.57;0.63;;;15.60;69.40;;;;;;5060174;28;20899;-67
2023/03/21 12:49:41;;;;;;;3.40;1.37;;;15.50;67.90;;;;;;5072444;28;20506;-67
2023/03/21 12:52:20;;;;;;;2.10;0.60;;;15.50;68.50;;;;;;5071833;28;20419;-68
2023/03/21 12:54:52;;;;;;;1.40;0.70;;;15.60;68.50;;;;;;5071830;28;20962;-67
2023/03/21 12:57:22;;;;;;;2.70;1.60;;;15.80;69.40;;;;;;5071666;28;20419;-67
2023/03/21 12:59:47;;;;;;;2.27;0.80;;;16.30;69.30;;;;;;5071382;28;20423;-67
2023/03/21 13:02:37;;;;;;;1.30;0.50;;;16.70;68.10;;;;;;5071601;28;20446;-67
2023/03/21 13:05:16;;;;;;;2.57;0.90;;;17.00;66.80;;;;;;5072058;28;20192;-67
2023/03/21 13:08:10;;;;;;;4.00;1.00;;;17.20;65.50;;;;;;5071727;28;20469;-67